Aviation Digital Data Service (ADDS)

Output produced by METARs form (0041 UTC 24 May 2022)
found at http://www.aviationweather.gov/metar/data/
 
DFOO 240000Z 22006KT CAVOK 24/21 Q1014
TAF DFOO 232300Z 2400/2424 18008KT 9999 FEW020 
     PROB30 
     TEMPO 2414/2422 4000 TSRA SCT020 FEW033CB
       
DFFD 232300Z 26003KT 200V300 CAVOK 24/20 Q1013 NOSIG
TAF DFFD 232300Z 2400/2506 20008KT 9999 FEW026